Decoded Metar for KAEL (ALBERT LEA in MN, USA) (IATA:AEL) | Meteo·Mobile Aviation Weather
aviador You're here:

KAEL Decoded Metar

ALBERT LEA in MN, USA
Report Time2019-05-22 18:35:00
UTC Time2019-05-22 18:36:53
Flight Rules vfr VFR
Wind200° at 20 Gusting to 28 kt
W.Decomp.*RWY 17: 17.5 kt HW 9.7 kt RCW
RWY 23: 17.1 kt HW 10.3 kt LCW
Visibility9999 m
Phenomena:N/A
Clouds:Scattered 038 Hf
Broken 046 Hf
Expected CloudBase > 3,200 ft AGL from Temp-Dew spread
Ceiling4,600 ft
Temp17°C (ISA +4)
Dew Point09°C (59% RH)
AAT9.6°C
QNH1002 hPa
Density Alt2,316 ft
Elevation1,257 ft
Report Wrong Elevation
Raw Report
METAR KAEL 221835Z AUTO 20020G28KT 10SM SCT038 BKN046 17/09 A2959
RMK AO2=

Extra information for KAEL:More info

Metar Taf Metar & Taf Last 4 Metars F.Rules Stats Wind Profile Meteogram Temp Stats Airport Information Weather charts Add Link Nearby VenuesMetar ALERT Operation Metar Decoded Social comments

AIRNAV info for KAEL